Time;durP1;ratioP1;P1;durP2;ratioP2;P2;SDS_P1;SDS_P2;PMS_P1;PMS_P2;Temp;Humidity;BMP_temperature;BMP_pressure;BME280_temperature;BME280_humidity;BME280_pressure;Samples;Min_cycle;Max_cycle;Signal;HPM_P1;HPM_P2
2022/01/08 00:01:40;;;;;;;2.47;1.60;;;19.30;44.70;;;;;;5071723;28;20025;-67
2022/01/08 00:04:06;;;;;;;3.78;1.73;;;19.30;44.80;;;;;;5072073;28;20040;-68
2022/01/08 00:06:31;;;;;;;2.47;1.52;;;19.30;44.80;;;;;;5072500;28;20029;-69
2022/01/08 00:08:57;;;;;;;2.58;1.75;;;19.30;44.90;;;;;;5070634;28;20049;-69
2022/01/08 00:11:26;;;;;;;3.38;1.80;;;19.20;44.80;;;;;;5072966;28;20033;-68
2022/01/08 00:13:52;;;;;;;3.08;1.50;;;19.30;44.90;;;;;;5072568;28;20040;-69
2022/01/08 00:16:17;;;;;;;3.25;1.90;;;19.20;44.80;;;;;;5071442;28;20387;-69
2022/01/08 00:18:43;;;;;;;3.90;1.75;;;19.20;44.80;;;;;;5071752;28;20044;-67
2022/01/08 00:21:09;;;;;;;2.70;1.77;;;19.20;44.80;;;;;;5071441;28;20040;-67
2022/01/08 00:23:34;;;;;;;2.13;1.60;;;19.20;44.80;;;;;;5072839;28;20051;-67
2022/01/08 00:26:00;;;;;;;2.00;1.60;;;19.20;44.80;;;;;;5073287;28;20033;-67
2022/01/08 00:28:27;;;;;;;2.65;1.58;;;19.20;44.80;;;;;;5072777;28;20029;-67
2022/01/08 00:30:53;;;;;;;3.38;2.03;;;19.20;44.90;;;;;;5072427;28;20460;-67
2022/01/08 00:33:20;;;;;;;3.33;1.85;;;19.20;44.80;;;;;;5069070;28;20070;-67
2022/01/08 00:35:46;;;;;;;3.17;1.80;;;19.10;44.80;;;;;;5071534;28;20093;-67
2022/01/08 00:38:13;;;;;;;2.60;1.60;;;19.10;44.80;;;;;;5071281;28;20037;-69
2022/01/08 00:40:38;;;;;;;2.65;1.63;;;19.10;44.80;;;;;;5073799;28;20103;-69
2022/01/08 00:43:04;;;;;;;2.58;1.75;;;19.10;44.80;;;;;;5072796;28;20116;-68
2022/01/08 00:45:30;;;;;;;2.53;1.88;;;19.10;44.80;;;;;;5072936;28;20553;-68
2022/01/08 00:47:55;;;;;;;2.58;1.70;;;19.10;44.70;;;;;;5069745;28;20033;-66
2022/01/08 00:50:21;;;;;;;3.35;1.95;;;19.10;44.70;;;;;;5074045;28;20349;-68
2022/01/08 00:52:47;;;;;;;3.70;1.80;;;19.10;44.70;;;;;;5070395;28;20051;-74
2022/01/08 00:55:13;;;;;;;3.38;2.10;;;19.00;44.70;;;;;;5073457;28;20392;-68
2022/01/08 00:57:40;;;;;;;3.58;2.20;;;19.00;44.80;;;;;;5074526;28;20033;-68
2022/01/08 01:00:08;;;;;;;2.47;1.70;;;19.00;44.70;;;;;;5077307;28;20087;-71
2022/01/08 01:02:34;;;;;;;2.58;1.92;;;19.00;44.60;;;;;;5060441;28;20025;-71
2022/01/08 01:04:59;;;;;;;4.10;2.05;;;19.00;44.70;;;;;;5068871;28;20044;-71
2022/01/08 01:07:25;;;;;;;3.60;2.10;;;18.90;44.60;;;;;;5080375;28;20388;-71
2022/01/08 01:09:51;;;;;;;3.40;2.08;;;18.90;44.60;;;;;;5072019;28;20088;-71
2022/01/08 01:12:17;;;;;;;4.20;2.13;;;18.90;44.60;;;;;;5071352;28;20396;-71
2022/01/08 01:14:42;;;;;;;3.35;2.00;;;18.90;44.50;;;;;;5070663;28;20036;-71
2022/01/08 01:17:08;;;;;;;3.45;1.85;;;18.80;44.40;;;;;;5070207;28;20533;-71
2022/01/08 01:19:35;;;;;;;3.33;1.92;;;18.80;44.40;;;;;;5073538;28;20028;-71
2022/01/08 01:22:01;;;;;;;4.03;1.92;;;18.80;44.30;;;;;;5070691;28;20163;-71
2022/01/08 01:24:28;;;;;;;2.60;1.80;;;18.80;44.30;;;;;;5072531;28;20107;-71
2022/01/08 01:48:28;;;;;;;4.68;2.10;;;18.60;44.20;;;;;;5075518;28;20035;-67
2022/01/08 01:50:53;;;;;;;2.65;1.88;;;18.60;44.20;;;;;;5074450;28;20119;-68
2022/01/08 01:53:19;;;;;;;3.33;1.75;;;18.60;44.20;;;;;;5056845;28;20021;-68
2022/01/08 01:55:49;;;;;;;4.05;2.20;;;18.50;44.10;;;;;;5074603;28;20028;-68
2022/01/08 01:58:16;;;;;;;4.13;2.10;;;18.50;44.10;;;;;;5078742;28;20016;-68
2022/01/08 02:00:44;;;;;;;2.30;1.60;;;18.50;44.10;;;;;;5076339;28;20032;-71
2022/01/08 02:03:10;;;;;;;2.83;2.00;;;18.50;44.10;;;;;;5075921;28;20429;-71
2022/01/08 02:05:36;;;;;;;3.05;1.92;;;18.50;44.00;;;;;;5076387;28;20024;-71
2022/01/08 02:08:02;;;;;;;3.25;1.90;;;18.50;44.10;;;;;;5075551;28;20428;-71
2022/01/08 02:10:27;;;;;;;2.83;2.08;;;18.50;44.00;;;;;;5072491;28;20028;-71
2022/01/08 02:12:53;;;;;;;2.95;1.83;;;18.40;43.90;;;;;;5075600;28;20036;-71
2022/01/08 02:15:18;;;;;;;3.58;2.28;;;18.40;43.90;;;;;;5075690;28;20085;-71
2022/01/08 02:17:44;;;;;;;2.53;1.88;;;18.40;43.90;;;;;;5074159;28;20086;-72
2022/01/08 02:20:11;;;;;;;3.42;1.90;;;18.40;43.90;;;;;;5075211;28;20032;-71
2022/01/08 02:22:37;;;;;;;2.92;2.17;;;18.40;43.90;;;;;;5074956;28;20071;-71
2022/01/08 02:25:04;;;;;;;4.43;2.03;;;18.40;43.90;;;;;;5076138;28;20103;-71
2022/01/08 02:27:29;;;;;;;3.15;2.03;;;18.40;43.90;;;;;;5073954;28;20032;-71
2022/01/08 02:29:55;;;;;;;2.70;2.00;;;18.40;43.90;;;;;;5073383;28;20036;-71
2022/01/08 02:32:29;;;;;;;3.17;2.00;;;18.30;43.80;;;;;;5074852;28;20020;-71
2022/01/08 02:34:55;;;;;;;3.42;1.92;;;18.30;43.80;;;;;;5060480;28;20473;-67
2022/01/08 02:37:29;;;;;;;3.85;2.20;;;18.30;43.80;;;;;;5074542;28;20056;-67
2022/01/08 02:39:57;;;;;;;3.78;2.00;;;18.30;43.80;;;;;;5073715;28;20123;-67
2022/01/08 02:42:25;;;;;;;3.25;1.80;;;18.30;43.80;;;;;;5074945;28;20050;-67
2022/01/08 02:44:51;;;;;;;3.92;2.10;;;18.30;43.90;;;;;;5075907;28;20048;-71
2022/01/08 02:47:18;;;;;;;3.08;2.20;;;18.20;43.80;;;;;;5074863;28;20067;-72
2022/01/08 02:49:46;;;;;;;2.92;1.80;;;18.20;43.80;;;;;;5074813;28;20066;-67
2022/01/08 02:52:11;;;;;;;2.90;1.70;;;18.20;43.70;;;;;;5072341;28;20094;-66
2022/01/08 02:54:37;;;;;;;2.90;2.13;;;18.20;43.80;;;;;;5072588;28;20476;-67
2022/01/08 02:57:03;;;;;;;3.08;1.88;;;18.20;43.70;;;;;;5072954;28;20107;-67
2022/01/08 02:59:30;;;;;;;3.63;2.10;;;18.10;43.70;;;;;;5064757;28;20047;-67
2022/01/08 03:01:56;;;;;;;2.90;1.98;;;18.10;43.70;;;;;;5073952;28;20033;-67
2022/01/08 03:04:21;;;;;;;2.55;1.83;;;18.10;43.70;;;;;;5072731;28;20036;-67
2022/01/08 03:06:47;;;;;;;2.78;2.00;;;18.10;43.70;;;;;;5084848;28;20028;-67
2022/01/08 03:09:13;;;;;;;2.10;1.77;;;18.10;43.70;;;;;;5073536;28;20094;-67
2022/01/08 03:11:38;;;;;;;2.50;1.80;;;18.10;43.60;;;;;;5074363;28;20020;-67
2022/01/08 03:14:07;;;;;;;2.92;1.95;;;18.10;43.60;;;;;;5075299;28;20380;-67
2022/01/08 03:16:34;;;;;;;2.95;1.90;;;18.10;43.60;;;;;;5072074;28;20021;-67
2022/01/08 03:19:09;;;;;;;3.83;2.03;;;18.00;43.60;;;;;;5073275;28;20039;-67
2022/01/08 03:21:38;;;;;;;3.65;2.20;;;18.00;43.60;;;;;;5072502;28;20541;-67
2022/01/08 03:24:06;;;;;;;3.72;2.10;;;18.00;43.60;;;;;;5073837;28;20031;-67
2022/01/08 03:26:32;;;;;;;3.80;2.30;;;18.00;43.60;;;;;;5074297;28;20102;-67
2022/01/08 03:28:58;;;;;;;3.70;2.20;;;18.00;43.60;;;;;;5073278;28;20475;-67
2022/01/08 03:31:25;;;;;;;3.30;2.35;;;18.00;43.50;;;;;;5074172;28;20043;-67
2022/01/08 03:33:52;;;;;;;4.30;2.17;;;18.00;43.50;;;;;;5061354;28;20376;-67
2022/01/08 03:36:19;;;;;;;3.17;2.10;;;17.90;43.50;;;;;;5070780;28;20024;-67
2022/01/08 03:38:45;;;;;;;2.65;2.00;;;17.90;43.50;;;;;;5072595;28;20396;-67
2022/01/08 03:41:11;;;;;;;3.95;2.17;;;17.90;43.60;;;;;;5074890;28;20028;-67
2022/01/08 03:43:37;;;;;;;3.15;2.10;;;17.90;43.60;;;;;;5073168;28;20188;-71
2022/01/08 03:46:04;;;;;;;2.70;1.77;;;17.90;43.50;;;;;;5073406;28;20032;-71
2022/01/08 03:49:12;;;;;;;3.30;1.92;;;17.90;43.60;;;;;;5071959;28;20031;-71
2022/01/08 03:51:31;;;;;;;4.03;2.10;;;17.90;43.50;;;;;;5073630;28;20037;-71
2022/01/08 03:53:57;;;;;;;2.97;2.00;;;17.90;43.60;;;;;;5072302;28;20059;-71
2022/01/08 03:56:24;;;;;;;3.60;2.13;;;17.80;43.50;;;;;;5072297;28;20059;-71
2022/01/08 03:58:50;;;;;;;2.97;2.00;;;17.80;43.50;;;;;;5069585;28;20028;-67
2022/01/08 04:01:15;;;;;;;3.95;2.10;;;17.80;43.50;;;;;;5073053;28;20522;-67
2022/01/08 04:03:41;;;;;;;2.65;2.00;;;17.80;43.40;;;;;;5072981;28;20028;-67
2022/01/08 04:06:07;;;;;;;3.33;2.10;;;17.80;43.50;;;;;;5074796;28;20081;-67
2022/01/08 04:08:33;;;;;;;2.90;1.83;;;17.80;43.40;;;;;;5069915;28;20396;-67
2022/01/08 04:10:58;;;;;;;3.15;1.92;;;17.80;43.50;;;;;;5070071;28;20086;-67
2022/01/08 04:13:31;;;;;;;3.13;2.17;;;17.70;43.40;;;;;;5073678;28;20021;-67
2022/01/08 04:16:01;;;;;;;3.35;2.08;;;17.70;43.40;;;;;;5074276;28;20017;-67
2022/01/08 04:18:27;;;;;;;2.38;1.75;;;17.70;43.50;;;;;;5071935;28;20041;-67
2022/01/08 04:23:37;;;;;;;3.80;1.88;;;17.70;43.50;;;;;;5072611;28;20133;-71
2022/01/08 04:26:03;;;;;;;2.75;2.03;;;17.70;43.50;;;;;;5070187;28;20063;-71
2022/01/08 04:28:29;;;;;;;2.45;2.00;;;17.60;43.50;;;;;;5072806;28;20515;-71
2022/01/08 04:31:02;;;;;;;3.03;1.92;;;17.60;43.50;;;;;;5073705;28;20056;-67
2022/01/08 04:33:28;;;;;;;3.08;2.28;;;17.60;43.40;;;;;;5062896;28;20385;-67
2022/01/08 04:35:55;;;;;;;2.97;2.00;;;17.60;43.50;;;;;;5063647;28;20025;-67
2022/01/08 04:38:21;;;;;;;4.10;2.20;;;17.60;43.50;;;;;;5072464;28;20024;-67
2022/01/08 04:40:47;;;;;;;3.17;2.30;;;17.60;43.50;;;;;;5073980;28;20463;-67
2022/01/08 04:43:13;;;;;;;3.67;2.00;;;17.60;43.60;;;;;;5070741;28;20110;-67
2022/01/08 04:45:38;;;;;;;2.22;1.75;;;17.50;43.40;;;;;;5072493;28;20349;-71
2022/01/08 04:48:04;;;;;;;3.55;1.90;;;17.50;43.50;;;;;;5071617;28;20024;-71
2022/01/08 04:50:30;;;;;;;2.95;2.03;;;17.50;43.50;;;;;;5071795;28;20046;-71
2022/01/08 04:52:57;;;;;;;2.63;2.00;;;17.50;43.50;;;;;;5072058;28;20040;-71
2022/01/08 04:55:23;;;;;;;2.78;2.10;;;17.50;43.60;;;;;;5071911;28;20029;-71
2022/01/08 04:57:48;;;;;;;3.03;2.38;;;17.50;43.50;;;;;;5071869;28;20038;-67
2022/01/08 05:00:16;;;;;;;4.03;1.95;;;17.50;43.50;;;;;;5074857;28;20119;-67
2022/01/08 05:02:42;;;;;;;5.50;2.05;;;17.50;43.60;;;;;;5070897;28;20036;-67
2022/01/08 05:05:09;;;;;;;4.30;2.22;;;17.40;43.60;;;;;;5072406;28;20056;-71
2022/01/08 05:07:35;;;;;;;2.97;2.20;;;17.40;43.50;;;;;;5073307;28;20032;-71
2022/01/08 05:10:00;;;;;;;4.65;2.05;;;17.40;43.60;;;;;;5073085;28;20040;-71
2022/01/08 05:12:26;;;;;;;2.97;2.00;;;17.40;43.60;;;;;;5072550;28;20074;-71
2022/01/08 05:14:52;;;;;;;3.15;2.05;;;17.40;43.60;;;;;;5072535;28;20480;-71
2022/01/08 05:17:17;;;;;;;3.45;2.40;;;17.40;43.60;;;;;;5070886;28;20025;-71
2022/01/08 05:19:50;;;;;;;2.83;2.40;;;17.40;43.60;;;;;;5069665;28;20090;-71
2022/01/08 05:22:29;;;;;;;4.50;2.40;;;17.40;43.60;;;;;;5072619;28;20032;-71
2022/01/08 05:24:55;;;;;;;3.00;2.10;;;17.30;43.50;;;;;;5072421;28;20025;-72
2022/01/08 05:27:21;;;;;;;3.67;2.25;;;17.30;43.60;;;;;;5071272;28;20094;-71
2022/01/08 05:29:49;;;;;;;3.13;1.88;;;17.30;43.60;;;;;;5071803;28;20468;-68
2022/01/08 05:32:18;;;;;;;2.85;2.13;;;17.30;43.60;;;;;;5060672;28;20112;-68
2022/01/08 05:34:47;;;;;;;4.20;2.47;;;17.30;43.60;;;;;;5077105;28;20024;-67
2022/01/08 05:37:13;;;;;;;3.20;2.13;;;17.20;43.60;;;;;;5053201;28;20021;-67
2022/01/08 05:39:40;;;;;;;3.53;2.35;;;17.30;43.60;;;;;;5053054;28;20040;-67
2022/01/08 05:42:06;;;;;;;2.67;2.00;;;17.20;43.60;;;;;;5057146;28;20124;-67
2022/01/08 05:44:32;;;;;;;3.85;2.30;;;17.20;43.50;;;;;;5062397;28;20037;-68
2022/01/08 05:46:58;;;;;;;4.18;2.33;;;17.20;43.60;;;;;;5071824;28;20043;-67
2022/01/08 05:49:23;;;;;;;3.35;2.13;;;17.20;43.60;;;;;;5071544;28;20039;-67
2022/01/08 05:51:49;;;;;;;3.13;2.20;;;17.20;43.60;;;;;;5072280;28;20045;-68
2022/01/08 05:54:15;;;;;;;3.72;2.38;;;17.20;43.60;;;;;;5072921;28;20025;-68
2022/01/08 05:56:40;;;;;;;4.75;2.10;;;17.20;43.60;;;;;;5072244;28;20078;-68
2022/01/08 05:59:06;;;;;;;3.22;2.00;;;17.20;43.60;;;;;;5073714;28;20473;-68
2022/01/08 06:01:36;;;;;;;2.65;2.05;;;17.20;43.60;;;;;;5071431;28;20029;-68
2022/01/08 06:04:03;;;;;;;3.35;2.17;;;17.10;43.50;;;;;;5072529;28;20032;-68
2022/01/08 06:06:29;;;;;;;2.90;2.00;;;17.10;43.60;;;;;;5071369;28;20487;-68
2022/01/08 06:08:54;;;;;;;3.30;2.10;;;17.10;43.60;;;;;;5071821;28;20076;-67
2022/01/08 06:11:20;;;;;;;3.53;2.00;;;17.10;43.60;;;;;;5071607;28;20024;-71
2022/01/08 06:13:46;;;;;;;3.65;2.28;;;17.10;43.60;;;;;;5071080;28;20024;-71
2022/01/08 06:16:11;;;;;;;3.05;2.20;;;17.10;43.60;;;;;;5073353;28;20498;-71
2022/01/08 06:18:38;;;;;;;3.70;2.22;;;17.10;43.60;;;;;;5074359;28;20032;-67
2022/01/08 06:21:04;;;;;;;2.65;2.20;;;17.10;43.60;;;;;;5072591;28;20388;-67
2022/01/08 06:23:30;;;;;;;3.42;2.00;;;17.00;43.60;;;;;;5075936;28;20024;-67
2022/01/08 06:25:56;;;;;;;4.47;2.50;;;17.00;43.60;;;;;;5074077;28;20036;-67
2022/01/08 06:28:22;;;;;;;3.53;2.30;;;17.00;43.60;;;;;;5075241;28;20036;-67
2022/01/08 06:30:48;;;;;;;3.60;2.20;;;17.00;43.60;;;;;;5074456;28;20569;-71
2022/01/08 06:33:18;;;;;;;3.78;2.30;;;17.00;43.60;;;;;;5075352;28;20024;-71
2022/01/08 06:35:44;;;;;;;5.28;2.30;;;17.00;43.60;;;;;;5075167;28;20079;-71
2022/01/08 06:38:10;;;;;;;3.15;1.98;;;17.00;43.60;;;;;;5074184;28;20025;-71
2022/01/08 06:40:35;;;;;;;3.30;2.15;;;17.00;43.60;;;;;;5074921;28;20120;-71
2022/01/08 06:43:01;;;;;;;3.15;2.00;;;17.00;43.60;;;;;;5075361;28;20032;-68
2022/01/08 06:45:27;;;;;;;4.13;2.30;;;16.90;43.50;;;;;;5075094;28;20553;-68
2022/01/08 06:47:53;;;;;;;4.00;2.67;;;16.90;43.50;;;;;;5073365;28;20033;-67
2022/01/08 06:50:18;;;;;;;3.42;1.95;;;16.90;43.50;;;;;;5073947;28;20024;-68
2022/01/08 06:52:44;;;;;;;4.10;2.22;;;16.90;43.50;;;;;;5074165;28;20017;-68
2022/01/08 06:55:10;;;;;;;3.30;2.40;;;16.90;43.60;;;;;;5074729;28;20036;-68
2022/01/08 06:57:36;;;;;;;3.67;2.20;;;16.90;43.50;;;;;;5072054;28;20441;-71
2022/01/08 07:00:03;;;;;;;3.55;1.90;;;16.90;43.50;;;;;;5080905;28;20446;-71
2022/01/08 07:02:29;;;;;;;4.35;2.28;;;16.80;43.40;;;;;;5072923;28;20025;-71
2022/01/08 07:04:55;;;;;;;2.75;1.60;;;16.80;43.40;;;;;;5086301;28;20563;-72
2022/01/08 07:07:20;;;;;;;3.55;2.25;;;16.80;43.50;;;;;;5072669;28;20031;-71
2022/01/08 07:09:46;;;;;;;1.98;1.70;;;16.80;43.40;;;;;;5073561;28;20066;-71
2022/01/08 07:12:12;;;;;;;3.60;1.98;;;16.80;43.40;;;;;;5073303;28;20088;-71
2022/01/08 07:14:37;;;;;;;3.75;1.83;;;16.80;43.50;;;;;;5046014;28;20033;-71
2022/01/08 07:17:03;;;;;;;4.13;2.10;;;16.80;43.40;;;;;;5071989;28;20033;-72
2022/01/08 07:19:29;;;;;;;3.15;2.13;;;16.80;43.40;;;;;;5073661;28;20054;-71
2022/01/08 07:21:54;;;;;;;2.85;2.00;;;16.80;43.40;;;;;;5073263;28;20056;-71
2022/01/08 07:24:20;;;;;;;2.90;2.03;;;16.80;43.40;;;;;;5074655;28;20071;-71
2022/01/08 07:26:46;;;;;;;2.83;1.90;;;16.80;43.50;;;;;;5074294;28;20468;-72
2022/01/08 07:29:12;;;;;;;2.10;1.75;;;16.70;43.40;;;;;;5073216;28;20040;-72
2022/01/08 07:31:37;;;;;;;2.83;1.88;;;16.80;43.40;;;;;;5073621;28;20027;-71
2022/01/08 07:34:03;;;;;;;4.25;2.17;;;16.80;43.40;;;;;;5069310;28;20075;-71
2022/01/08 07:36:29;;;;;;;2.97;1.90;;;16.70;43.40;;;;;;5074344;28;20138;-67
2022/01/08 07:38:54;;;;;;;3.60;2.08;;;16.70;43.40;;;;;;5072664;28;20119;-67
2022/01/08 07:41:20;;;;;;;2.88;2.00;;;16.70;43.40;;;;;;5074115;28;20116;-68
2022/01/08 07:43:46;;;;;;;4.80;1.90;;;16.70;43.40;;;;;;5074100;28;20071;-65
2022/01/08 07:46:12;;;;;;;5.70;3.70;;;16.70;43.40;;;;;;5073066;28;20033;-68
2022/01/08 07:48:37;;;;;;;6.95;4.13;;;16.60;41.20;;;;;;5073082;28;20603;-67
2022/01/08 07:51:03;;;;;;;6.47;3.95;;;15.80;39.70;;;;;;5071890;28;20032;-66
2022/01/08 07:53:29;;;;;;;9.25;4.30;;;15.10;41.30;;;;;;5073759;28;20028;-66
2022/01/08 07:55:54;;;;;;;5.25;3.63;;;14.60;42.20;;;;;;5073220;28;20025;-66
2022/01/08 07:58:20;;;;;;;7.53;4.10;;;14.30;43.40;;;;;;5071673;28;20020;-67
2022/01/08 08:00:47;;;;;;;5.95;3.70;;;14.10;43.40;;;;;;5073480;28;20039;-64
2022/01/08 08:03:13;;;;;;;8.85;4.10;;;13.90;43.90;;;;;;5072871;28;20050;-64
2022/01/08 08:05:39;;;;;;;6.07;3.90;;;13.90;44.30;;;;;;5073219;28;20103;-63
2022/01/08 08:08:05;;;;;;;5.30;3.22;;;13.80;44.60;;;;;;5071908;28;20107;-64
2022/01/08 08:10:31;;;;;;;5.57;3.25;;;13.70;44.70;;;;;;5075025;28;20021;-63
2022/01/08 08:12:57;;;;;;;7.13;2.85;;;13.70;44.90;;;;;;5074121;28;20017;-71
2022/01/08 08:15:23;;;;;;;5.72;2.13;;;13.60;45.40;;;;;;5076474;28;20476;-68
2022/01/08 08:17:48;;;;;;;4.60;2.20;;;13.90;46.90;;;;;;5072669;28;20391;-67
2022/01/08 08:20:14;;;;;;;5.22;1.73;;;14.30;46.80;;;;;;5073789;28;20403;-67
2022/01/08 08:22:40;;;;;;;4.45;1.67;;;14.70;46.50;;;;;;5073902;28;20059;-68
2022/01/08 08:25:08;;;;;;;2.95;1.77;;;15.00;46.10;;;;;;5072774;28;20402;-69
2022/01/08 08:27:34;;;;;;;3.50;1.73;;;15.30;45.70;;;;;;5073529;28;20085;-69
2022/01/08 08:30:00;;;;;;;6.03;1.85;;;15.60;45.30;;;;;;5065967;28;20029;-67
2022/01/08 08:32:25;;;;;;;4.50;1.80;;;15.80;45.00;;;;;;5055090;28;20424;-68
2022/01/08 08:34:51;;;;;;;7.30;2.08;;;16.10;44.70;;;;;;5054051;28;20546;-67
2022/01/08 08:37:18;;;;;;;6.38;1.75;;;16.30;44.20;;;;;;5065315;28;20029;-67
2022/01/08 08:39:43;;;;;;;4.25;1.60;;;16.50;43.80;;;;;;5054562;28;20033;-79
2022/01/08 08:42:09;;;;;;;5.57;1.92;;;16.70;43.50;;;;;;5069137;28;20480;-72
2022/01/08 08:44:35;;;;;;;3.08;1.70;;;16.90;43.40;;;;;;5065700;28;20473;-73
2022/01/08 08:47:01;;;;;;;3.17;1.65;;;17.00;43.00;;;;;;5055141;28;20029;-71
2022/01/08 08:49:27;;;;;;;4.97;1.90;;;17.20;42.70;;;;;;5072446;28;20024;-69
2022/01/08 08:51:54;;;;;;;2.30;1.40;;;17.40;42.70;;;;;;5073242;28;20056;-69
2022/01/08 08:54:20;;;;;;;2.83;1.60;;;17.50;43.50;;;;;;5071943;28;20048;-73
2022/01/08 08:56:45;;;;;;;3.40;1.90;;;17.60;42.40;;;;;;5073349;28;20017;-68
2022/01/08 08:59:11;;;;;;;5.18;1.90;;;17.80;42.30;;;;;;5074228;28;20555;-69
2022/01/08 09:01:37;;;;;;;3.10;1.85;;;17.90;42.20;;;;;;5072001;28;20036;-69
2022/01/08 09:04:03;;;;;;;2.47;1.02;;;18.00;42.00;;;;;;5073374;28;20484;-69
2022/01/08 09:06:30;;;;;;;4.07;1.60;;;18.20;41.80;;;;;;5081743;28;20097;-68
2022/01/08 09:08:56;;;;;;;4.22;1.50;;;18.30;41.60;;;;;;5071769;28;20064;-68
2022/01/08 09:11:22;;;;;;;3.50;1.65;;;18.40;41.40;;;;;;5073533;28;20345;-67
2022/01/08 09:13:48;;;;;;;3.58;1.50;;;18.50;41.20;;;;;;5072113;28;20562;-66
2022/01/08 09:16:14;;;;;;;3.55;1.23;;;18.60;40.90;;;;;;5071750;28;20133;-67
2022/01/08 09:18:41;;;;;;;2.60;1.38;;;18.70;40.70;;;;;;5071369;28;20460;-66
2022/01/08 09:21:07;;;;;;;3.17;1.27;;;18.80;40.70;;;;;;5073181;28;20060;-68
2022/01/08 09:23:33;;;;;;;5.45;1.50;;;18.90;40.50;;;;;;5073060;28;20503;-67
2022/01/08 09:26:00;;;;;;;4.70;1.75;;;19.00;40.20;;;;;;5070983;28;20476;-73
2022/01/08 09:28:27;;;;;;;3.13;1.70;;;19.10;40.00;;;;;;5053029;28;20048;-75
2022/01/08 09:30:54;;;;;;;4.28;1.52;;;19.10;39.60;;;;;;5053212;28;20024;-72
2022/01/08 09:33:20;;;;;;;3.05;1.50;;;19.20;39.50;;;;;;5053961;28;20033;-71
2022/01/08 09:35:46;;;;;;;4.55;1.73;;;19.30;39.40;;;;;;5056728;28;20016;-71
2022/01/08 09:38:12;;;;;;;2.42;1.50;;;19.40;39.20;;;;;;5059712;28;20384;-71
2022/01/08 09:40:37;;;;;;;3.25;1.77;;;19.40;39.80;;;;;;5082003;28;20024;-71
2022/01/08 09:43:04;;;;;;;3.53;1.40;;;19.50;38.80;;;;;;5053922;28;20528;-76
2022/01/08 09:45:30;;;;;;;4.25;1.63;;;19.60;38.70;;;;;;5071090;28;20115;-75
2022/01/08 09:47:56;;;;;;;3.95;1.60;;;19.60;38.60;;;;;;5071910;28;20103;-76
2022/01/08 09:50:22;;;;;;;3.38;1.45;;;19.70;38.50;;;;;;5062301;28;20033;-71
2022/01/08 09:52:47;;;;;;;1.83;1.33;;;19.70;38.40;;;;;;5057069;28;20033;-72
2022/01/08 09:55:13;;;;;;;2.05;1.35;;;19.80;38.30;;;;;;5055726;28;20025;-72
2022/01/08 09:57:39;;;;;;;3.47;1.60;;;19.80;38.20;;;;;;5074295;28;20032;-71
2022/01/08 10:00:14;;;;;;;3.30;1.50;;;19.90;38.10;;;;;;5062979;28;20020;-77
2022/01/08 10:02:40;;;;;;;4.03;1.67;;;20.00;37.90;;;;;;5076744;28;20025;-71
2022/01/08 10:05:17;;;;;;;2.47;1.45;;;20.00;37.90;;;;;;5076117;28;20077;-71
2022/01/08 10:07:57;;;;;;;3.15;1.40;;;20.10;37.70;;;;;;5076666;28;20498;-70
2022/01/08 10:10:24;;;;;;;4.55;1.80;;;20.10;37.60;;;;;;5076068;28;20048;-71
2022/01/08 10:12:56;;;;;;;3.35;1.60;;;20.20;37.60;;;;;;5076636;28;20067;-71
2022/01/08 10:18:23;;;;;;;3.22;1.40;;;20.30;37.30;;;;;;5076209;28;20058;-72
2022/01/08 10:20:50;;;;;;;3.10;1.60;;;20.30;37.30;;;;;;5076111;28;20058;-71
2022/01/08 10:23:21;;;;;;;3.03;1.70;;;20.40;37.20;;;;;;5058379;28;20029;-72
2022/01/08 10:25:56;;;;;;;3.38;2.00;;;20.40;37.10;;;;;;5076397;28;20056;-71
2022/01/08 10:28:38;;;;;;;3.17;1.50;;;20.50;36.90;;;;;;5075912;28;20024;-72
2022/01/08 10:31:08;;;;;;;;;;;20.50;36.80;;;;;;5076623;28;20017;-71
2022/01/08 10:33:34;;;;;;;2.65;1.60;;;20.50;36.70;;;;;;5065308;28;19905;-71
2022/01/08 10:35:59;;;;;;;3.50;1.52;;;20.40;37.10;;;;;;5056386;28;20535;-70
2022/01/08 10:38:29;;;;;;;3.35;1.50;;;20.50;37.00;;;;;;5066740;28;20033;-72
2022/01/08 10:40:57;;;;;;;3.45;1.80;;;20.60;36.80;;;;;;5076328;28;20100;-71
2022/01/08 10:43:28;;;;;;;2.70;1.70;;;20.60;36.80;;;;;;5075955;28;20078;-71
2022/01/08 10:45:56;;;;;;;3.25;1.83;;;20.60;36.70;;;;;;5074367;28;20025;-72
2022/01/08 10:48:27;;;;;;;3.20;1.60;;;20.70;36.80;;;;;;5075706;28;20020;-71
2022/01/08 10:50:53;;;;;;;2.85;1.58;;;20.70;36.60;;;;;;5076252;28;20020;-76
2022/01/08 10:53:19;;;;;;;3.33;1.70;;;20.70;36.60;;;;;;5075721;28;20035;-72
2022/01/08 10:55:45;;;;;;;2.80;1.50;;;20.70;36.60;;;;;;5075755;28;20029;-78
2022/01/08 10:58:11;;;;;;;2.58;1.50;;;20.80;36.60;;;;;;5081447;28;20093;-75
2022/01/08 11:00:36;;;;;;;3.50;1.67;;;20.80;37.50;;;;;;5068816;28;20473;-74
2022/01/08 11:03:02;;;;;;;3.70;1.83;;;20.80;36.50;;;;;;5054024;28;20029;-74
2022/01/08 11:05:28;;;;;;;3.58;2.05;;;20.80;36.50;;;;;;5058999;28;20040;-71
2022/01/08 11:08:13;;;;;;;2.22;1.63;;;20.80;36.40;;;;;;5082421;28;20028;-75
2022/01/08 11:10:38;;;;;;;2.63;1.90;;;20.90;36.10;;;;;;5064448;28;20093;-70
2022/01/08 11:13:08;;;;;;;3.55;2.28;;;20.90;36.30;;;;;;5075125;28;20468;-70
2022/01/08 11:15:49;;;;;;;3.42;1.75;;;20.90;36.30;;;;;;5075295;28;20021;-68
2022/01/08 11:18:17;;;;;;;3.45;1.90;;;20.90;36.30;;;;;;5075366;28;20024;-77
2022/01/08 11:20:44;;;;;;;3.28;1.98;;;20.90;37.10;;;;;;5074122;28;20032;-77
2022/01/08 11:23:12;;;;;;;4.03;2.03;;;20.90;36.10;;;;;;5061700;28;20103;-78
2022/01/08 11:25:38;;;;;;;3.92;1.90;;;20.90;36.10;;;;;;5074883;28;20052;-72
2022/01/08 11:28:07;;;;;;;3.40;1.88;;;20.90;36.00;;;;;;5075465;28;20044;-75
2022/01/08 11:30:39;;;;;;;3.63;1.90;;;20.90;36.00;;;;;;5074929;28;20025;-74
2022/01/08 11:33:12;;;;;;;4.27;2.10;;;21.00;35.90;;;;;;5065228;28;20043;-70
2022/01/08 11:35:39;;;;;;;6.18;2.92;;;21.00;36.00;;;;;;5054857;28;20027;-72
2022/01/08 11:38:11;;;;;;;5.90;2.85;;;20.90;35.80;;;;;;5054229;28;20083;-72
2022/01/08 11:40:41;;;;;;;4.13;2.33;;;20.90;36.10;;;;;;5054724;28;20467;-72
2022/01/08 11:43:09;;;;;;;5.70;2.72;;;20.90;36.30;;;;;;5054909;28;20492;-72
2022/01/08 11:45:38;;;;;;;3.78;2.20;;;21.00;36.50;;;;;;5058514;28;20020;-72
2022/01/08 11:48:07;;;;;;;5.30;2.38;;;21.00;36.60;;;;;;5074546;28;20024;-72
2022/01/08 11:50:33;;;;;;;6.25;2.17;;;21.00;36.70;;;;;;5073379;28;20035;-73
2022/01/08 11:53:26;;;;;;;3.97;2.20;;;21.00;36.90;;;;;;5069725;28;20035;-75
2022/01/08 11:55:54;;;;;;;8.18;2.45;;;21.10;36.80;;;;;;5060601;28;20397;-71
2022/01/08 11:58:23;;;;;;;4.03;2.15;;;21.00;36.90;;;;;;5069176;28;20008;-71
2022/01/08 12:00:52;;;;;;;4.78;2.00;;;21.10;37.00;;;;;;5054829;28;20499;-72
2022/01/08 12:03:22;;;;;;;3.58;1.92;;;21.10;37.10;;;;;;5064246;28;20043;-73
2022/01/08 12:05:48;;;;;;;4.30;1.90;;;21.10;37.20;;;;;;5077957;28;20510;-72
2022/01/08 12:08:16;;;;;;;5.53;2.20;;;21.10;38.20;;;;;;5077078;28;20021;-72
2022/01/08 12:10:58;;;;;;;4.47;2.10;;;21.10;37.30;;;;;;5073913;28;20027;-73
2022/01/08 12:13:46;;;;;;;3.60;2.30;;;21.10;37.20;;;;;;5055361;28;20432;-74
2022/01/08 12:16:45;;;;;;;4.38;2.20;;;21.10;37.20;;;;;;5054041;28;20263;-71
2022/01/08 12:19:38;;;;;;;3.13;2.20;;;21.10;37.30;;;;;;5032339;28;20484;-71
2022/01/08 12:22:15;;;;;;;4.78;2.10;;;21.10;37.50;;;;;;5074437;28;20051;-71
2022/01/08 12:24:42;;;;;;;4.30;2.33;;;21.10;37.60;;;;;;5074246;28;20043;-73
2022/01/08 12:27:39;;;;;;;3.08;2.00;;;21.10;37.70;;;;;;5072674;28;20029;-76
2022/01/08 12:30:22;;;;;;;3.47;1.85;;;21.10;37.60;;;;;;5073544;28;20043;-75
2022/01/08 12:32:51;;;;;;;3.53;2.30;;;21.00;37.50;;;;;;5069383;28;20021;-73
2022/01/08 12:35:38;;;;;;;3.92;2.35;;;21.00;37.70;;;;;;5053932;28;20100;-73
2022/01/08 12:38:07;;;;;;;3.25;2.30;;;21.00;37.80;;;;;;5069664;28;20024;-75
2022/01/08 12:40:42;;;;;;;4.93;2.13;;;21.00;37.80;;;;;;5073568;28;20606;-71
2022/01/08 12:43:31;;;;;;;4.43;2.22;;;21.00;37.90;;;;;;5073921;28;20021;-71
2022/01/08 12:46:14;;;;;;;3.38;2.28;;;21.00;37.80;;;;;;5073748;28;20024;-72
2022/01/08 12:48:59;;;;;;;;;;;21.00;37.70;;;;;;5071842;28;20036;-71
2022/01/08 12:51:39;;;;;;;4.70;2.20;;;21.00;37.90;;;;;;5068704;28;19908;-71
2022/01/08 12:54:05;;;;;;;3.40;1.90;;;20.90;38.20;;;;;;5070501;28;20036;-71
2022/01/08 12:56:31;;;;;;;3.10;2.40;;;20.90;38.20;;;;;;5069787;28;20095;-70
2022/01/08 12:58:57;;;;;;;3.65;2.50;;;20.90;38.20;;;;;;5069818;28;20078;-69
2022/01/08 13:01:24;;;;;;;4.47;2.60;;;20.90;38.10;;;;;;5071327;28;20051;-70
2022/01/08 13:03:52;;;;;;;3.15;2.22;;;20.90;38.00;;;;;;5070709;28;20037;-71
2022/01/08 13:06:17;;;;;;;3.45;2.30;;;20.90;37.90;;;;;;5067963;28;20033;-71
2022/01/08 13:08:46;;;;;;;2.92;2.50;;;20.90;37.90;;;;;;5072544;28;20139;-77
2022/01/08 13:11:14;;;;;;;2.90;2.38;;;20.80;37.80;;;;;;5072187;28;20073;-75
2022/01/08 13:13:57;;;;;;;3.90;2.20;;;20.80;38.10;;;;;;5067025;28;20440;-76
2022/01/08 13:16:28;;;;;;;;;;;20.80;37.80;;;;;;5067164;28;20435;-75
2022/01/08 13:19:17;;;;;;;3.28;2.30;;;20.80;37.80;;;;;;5061761;28;20433;-75